Participated 4 times
Between 1994 and 1999
Silvio Martinello, Italy
Tour de France 2026 starts from Barcelona, Spain in

Stats and Facts from
Tour de France.

2026   2025   2024   2023  2022  2021  2020  2019   2018  2017   2016   2015  2014  2013   2012   2011  2010   2009   2008   2007   2006   2005   2004   2003   2002   2001   2000   1999   1998   1997  1996   1995   1994   1993   1992  1991   1990   1989   1988   1987   1986   1985   1984   1983  1982  1981   1980   1979  1978  1977   1976  1975  1974  1973   1972   1971   1970  1969   1968   1967   1966   1965  1964  1963   1962   1961   1960   1959   1958   1957  1956   1955   1954   1953   1952  1951  1950  1949   1948  1947  1939   1938   1937   1936   1935   1934   1933  1932   1931   1930  1929   1928   1927   1926  1925  1924  1923   1922   1921   1920   1919  1914   1913   1912   1911   1910  1909   1908   1907   1906  1905  1904   1903 

Tourstats
Sitemap

After stage 21 - 2025:
 16451 starters.
  5463 different riders.
  689 teams.
  2398 stages.
  470 restdays.
  466506.50 km.
  5925 abandoned riders.

Click map for 1951 route.
Facts from Tour de France 1951 Additional info and images from 1951.
  |   Stages.  |   Stage winners.  |   Days in jerseys.  |   Teams.  |   All riders.  |   All riders by age.  |   All riders from.  |  

  |   Rookies.  |   Withdrawls.  |   Average speed.  |   GC.  |   Polka  |   Green  |   White  |   Summits. (In tour)  |   Miscellaneous.  |  

Stage 15 on July 19th. 1951
Pick a stage:  1  2  3  4  5  6  7  8  9  10  11  12  13  14  15  16  17  18  19  20  21  22  23  24  

After stage 15:    Hugo Koblet  
  LuchonCarcassonne | Dist: 213.00km. | Winner: André Rosseel

Podium

Average speed for all riders in stage:  33,005 km./hr.

1
 André Rosseel  Belgium06h 22' 01"=33,454  km/h

2
 Roger Decock  Belgium06h 22' 13"+  00:00:12 =33,437  km/h

3
 Maurice Diot  Paris06h 22' 13"+  00:00:12 =33,437  km/h

4  Louis Caput  Paris06h 22' 13"+  00:00:12 =33,437  km/h

5  Jean-Baptiste Dotto  Est-Sud Est06h 22' 13"+  00:00:12 =33,437  km/h

5  Willy Kemp  Luxembourg06h 22' 13"+  00:00:12 =33,437  km/h

5  José Serra Gil  Spain06h 22' 13"+  00:00:12 =33,437  km/h

5  Raoul Remy  France06h 22' 13"+  00:00:12 =33,437  km/h

5  Lucien Teisseire  France06h 22' 13"+  00:00:12 =33,437  km/h

5  Germain Derycke  Belgium06h 22' 13"+  00:00:12 =33,437  km/h

5  Alois De Hertog  Belgium06h 22' 13"+  00:00:12 =33,437  km/h

5  Eduard Van Ende  Belgium06h 22' 13"+  00:00:12 =33,437  km/h

5  Paul Giguet  Est-Sud Est06h 22' 13"+  00:00:12 =33,437  km/h

5  Serifano Biagioni  Italy06h 22' 13"+  00:00:12 =33,437  km/h

5  Pierre Brambilla  Est-Sud Est06h 22' 13"+  00:00:12 =33,437  km/h

5  Jean-Marie Goasmat  Ouest-Sud Ouest06h 22' 13"+  00:00:12 =33,437  km/h

17  Edouard Muller  France06h 27' 09"+  00:05:08 =33,010  km/h

18  Emile Baffert  Est-Sud Est06h 27' 09"+  00:05:08 =33,010  km/h

19  Gino Sciardis  Île-de-France06h 27' 09"+  00:05:08 =33,010  km/h

20  Stan Ockers  Belgium06h 27' 09"+  00:05:08 =33,010  km/h

21  Louis Deprez  Île-de-France06h 27' 09"+  00:05:08 =33,010  km/h

22  Abdel-Kader Zaaf  North Africa06h 27' 09"+  00:05:08 =33,010  km/h

23  Hilaire Couvreur  Belgium06h 27' 09"+  00:05:08 =33,010  km/h

23  Bernard Gauthier  France06h 27' 09"+  00:05:08 =33,010  km/h

23  Jean Robic  Paris06h 27' 09"+  00:05:08 =33,010  km/h

23  Louison Bobet  France06h 27' 09"+  00:05:08 =33,010  km/h

23  Raphaël Geminiani  France06h 27' 09"+  00:05:08 =33,010  km/h

23  Gilbert Bauvin  Est-Sud Est06h 27' 09"+  00:05:08 =33,010  km/h

23  Roger Walkowiak  Ouest-Sud Ouest06h 27' 09"+  00:05:08 =33,010  km/h

23  Bernardo Ruíz  Spain06h 27' 09"+  00:05:08 =33,010  km/h

23  Joseph Morvan  Ouest-Sud Ouest06h 27' 09"+  00:05:08 =33,010  km/h

23  Pierre Barbotin  France06h 27' 09"+  00:05:08 =33,010  km/h

23  Nello Lauredi  France06h 27' 09"+  00:05:08 =33,010  km/h

23  Adolphe Deledda  Est-Sud Est06h 27' 09"+  00:05:08 =33,010  km/h

23  Giuseppe Mirando  Est-Sud Est06h 27' 09"+  00:05:08 =33,010  km/h

23  Vincent Vitetta  Est-Sud Est06h 27' 09"+  00:05:08 =33,010  km/h

23  Luciano Pezzi  Italy06h 27' 09"+  00:05:08 =33,010  km/h

23  Marcel Huber  Switzerland06h 27' 09"+  00:05:08 =33,010  km/h

23  Roger Buchonnet  Est-Sud Est06h 27' 09"+  00:05:08 =33,010  km/h

23  Jean-Apotre Lazarides  France06h 27' 09"+  00:05:08 =33,010  km/h

23  Lucien Lazarides  France06h 27' 09"+  00:05:08 =33,010  km/h

23  Marcel De Mulder  Belgium06h 27' 09"+  00:05:08 =33,010  km/h

23  Dalmácio Langarica  Spain06h 27' 09"+  00:05:08 =33,010  km/h

23  Francisco Masip  Spain06h 27' 09"+  00:05:08 =33,010  km/h

23  Manuel Rodriguez  Spain06h 27' 09"+  00:05:08 =33,010  km/h

23  Hugo Koblet  Switzerland06h 27' 09"+  00:05:08 =33,010  km/h

23  Jacques Marinelli  Île-de-France06h 27' 09"+  00:05:08 =33,010  km/h

23  Georges Meunier  Ouest-Sud Ouest06h 27' 09"+  00:05:08 =33,010  km/h

23  Gino Bartali  Italy06h 27' 09"+  00:05:08 =33,010  km/h

23  Jean Diederich  Luxembourg06h 27' 09"+  00:05:08 =33,010  km/h

23  Jean Gueguen  France06h 27' 09"+  00:05:08 =33,010  km/h

23  Gottfried Weilenmann  Switzerland06h 27' 09"+  00:05:08 =33,010  km/h

23  Georges Aeschlimann  Switzerland06h 27' 09"+  00:05:08 =33,010  km/h

23  Andrea Carrea  Italy06h 27' 09"+  00:05:08 =33,010  km/h

23  Fausto Coppi  Italy06h 27' 09"+  00:05:08 =33,010  km/h

23  Franco Franchi  Italy06h 27' 09"+  00:05:08 =33,010  km/h

23  Ettore Milano  Italy06h 27' 09"+  00:05:08 =33,010  km/h

23  Jean Delahaye  Île-de-France06h 27' 09"+  00:05:08 =33,010  km/h

23  Hans Sommer  Switzerland06h 27' 09"+  00:05:08 =33,010  km/h

23  Leo Weilenmann  Switzerland06h 27' 09"+  00:05:08 =33,010  km/h

23  Virgilio Salimbeni  Italy06h 27' 09"+  00:05:08 =33,010  km/h

23  Marcel Verschueren  Belgium06h 27' 09"+  00:05:08 =33,010  km/h

23  Jean Baldassari  France06h 27' 09"+  00:05:08 =33,010  km/h

23  Henri Kass  Luxembourg06h 27' 09"+  00:05:08 =33,010  km/h

23  André Labeylie  Île-de-France06h 27' 09"+  00:05:08 =33,010  km/h

23  Robert Castelin  Est-Sud Est06h 27' 09"+  00:05:08 =33,010  km/h

23  Angelo Colinelli  Est-Sud Est06h 27' 09"+  00:05:08 =33,010  km/h

23  Pierre Cogan  Ouest-Sud Ouest06h 27' 09"+  00:05:08 =33,010  km/h

23  Roger Leveque  Ouest-Sud Ouest06h 27' 09"+  00:05:08 =33,010  km/h

23  Andre Mahé  Ouest-Sud Ouest06h 27' 09"+  00:05:08 =33,010  km/h

23  Jean Mayen  North Africa06h 27' 09"+  00:05:08 =33,010  km/h

23  Fiorenzo Magni  Italy06h 27' 09"+  00:05:08 =33,010  km/h

73  Armand Baeyens  Belgium06h 34' 17"+  00:12:16 =32,413  km/h

74  Miguel Gual Bauza  Spain06h 34' 17"+  00:12:16 =32,413  km/h

75  Robert Bonnaventure  Paris06h 43' 26"+  00:21:25 =31,678  km/h

76  Jean-Louis Carle  Paris06h 46' 56"+  00:24:55 =31,406  km/h

77  Alois Vansteenkiste  Belgium07h 01' 17"+  00:39:16 =30,336  km/h


Withdrawls: 8
 RiderTeamReason
57   Hans Dekkers HollandDid not start
63   Gerrit Voorting HollandDid not start
52   Jean Goldschmit LuxembourgDid not finish
81   Marcel Michel ParisDid not finish
107   Pierre Molineris Est-Sud EstDid not finish
110   Jean-Marie Cieliczka Ouest-Sud OuestDid not finish
112   Robert Desbats Ouest-Sud OuestDid not finish
114   Raymond Guegan Ouest-Sud OuestDid not finish
Todays birthdays.

1869 • Adolphe Dorion
1884 • Achille Germain
1886 • Emile Eigeldinger
1896 • Andre Léger
1907 • Frans Dictus
1921 • Alberto Ghirardi
1934 • Joseph Planckaert
1945 • Leif Mortensen
1952 • Alex Van Linden
1960 • Roberto Bressan
1960 • Bernard Chesneau
1962 • Paul Watson
1963 • Juan Rozas
1965 • Jean-Pierre Heynderickx
1967 • José-Manuel Oliveira
1970 • Wilfried Nelissen
1980 • Nick Nuyens
1996 • Jai Hindley

 

Optimized for Chrome - Edge
and Opera browsers.